createdAt,value
2022-12-11T00:02:03.372Z,92.40
2022-12-11T00:04:30.839Z,92.70
2022-12-11T00:06:57.735Z,92.50
2022-12-11T00:09:24.570Z,92.80
2022-12-11T00:11:51.423Z,92.50
2022-12-11T00:14:18.818Z,91.90
2022-12-11T00:16:47.682Z,91.50
2022-12-11T00:19:14.734Z,91.30
2022-12-11T00:21:41.690Z,91.00
2022-12-11T00:24:08.448Z,91.00
2022-12-11T00:26:35.207Z,90.80
2022-12-11T00:29:02.129Z,90.70
2022-12-11T00:31:29.161Z,90.80
2022-12-11T00:33:56.129Z,90.90
2022-12-11T00:36:24.469Z,91.00
2022-12-11T00:38:51.655Z,91.30
2022-12-11T00:41:19.071Z,91.60
2022-12-11T00:43:46.136Z,91.80
2022-12-11T00:46:13.394Z,92.10
2022-12-11T00:48:40.606Z,92.10
2022-12-11T00:51:07.516Z,92.30
2022-12-11T00:53:34.401Z,92.40
2022-12-11T00:56:01.447Z,92.50
2022-12-11T00:58:28.484Z,92.50
2022-12-11T01:00:55.351Z,92.50
2022-12-11T01:03:22.090Z,92.70
2022-12-11T01:05:55.057Z,92.60
2022-12-11T01:08:22.333Z,92.80
2022-12-11T01:10:49.298Z,92.30
2022-12-11T01:13:16.246Z,91.70
2022-12-11T01:15:46.151Z,91.40
2022-12-11T01:18:13.966Z,91.10
2022-12-11T01:20:42.566Z,90.90
2022-12-11T01:23:10.356Z,90.90
2022-12-11T01:25:38.315Z,90.80
2022-12-11T01:28:05.620Z,90.90
2022-12-11T01:30:33.165Z,91.00
2022-12-11T01:33:01.002Z,91.40
2022-12-11T01:35:28.146Z,91.70
2022-12-11T01:37:55.344Z,91.70
2022-12-11T01:40:22.258Z,91.90
2022-12-11T01:42:49.142Z,92.00
2022-12-11T01:45:22.509Z,92.20
2022-12-11T01:47:55.368Z,92.40
2022-12-11T01:50:22.233Z,92.50
2022-12-11T01:52:49.591Z,92.50
2022-12-11T01:55:18.076Z,92.40
2022-12-11T01:57:47.208Z,92.50
2022-12-11T02:00:14.156Z,92.40
2022-12-11T02:02:41.049Z,92.70
2022-12-11T02:05:08.872Z,92.20
2022-12-11T02:07:38.907Z,91.70
2022-12-11T02:10:06.197Z,91.30
2022-12-11T02:12:33.024Z,90.80
2022-12-11T02:15:11.280Z,90.60
2022-12-11T02:17:48.649Z,90.50
2022-12-11T02:20:31.486Z,90.40
2022-12-11T02:23:13.411Z,90.50
2022-12-11T02:25:52.519Z,90.70
2022-12-11T02:28:38.077Z,91.00
2022-12-11T02:31:16.477Z,91.30
2022-12-11T02:33:51.153Z,91.40
2022-12-11T02:36:18.956Z,91.70
2022-12-11T02:38:50.742Z,92.10
2022-12-11T02:41:19.350Z,92.10
2022-12-11T02:43:46.851Z,92.30
2022-12-11T02:46:14.375Z,92.30
2022-12-11T02:48:42.226Z,92.10
2022-12-11T02:51:10.113Z,92.30
2022-12-11T02:53:39.079Z,92.40
2022-12-11T02:56:24.755Z,92.30
2022-12-11T02:59:00.143Z,92.50
2022-12-11T03:01:27.505Z,92.10
2022-12-11T03:03:54.921Z,91.40
2022-12-11T03:06:24.456Z,91.00
2022-12-11T03:08:52.183Z,90.70
2022-12-11T03:11:18.911Z,90.60
2022-12-11T03:13:45.700Z,90.40
2022-12-11T03:16:12.672Z,90.10
2022-12-11T03:18:58.231Z,90.20
2022-12-11T03:21:33.278Z,90.40
2022-12-11T03:24:26.137Z,90.90
2022-12-11T03:27:00.778Z,91.10
2022-12-11T03:29:32.283Z,91.30
2022-12-11T03:32:09.731Z,91.50
2022-12-11T03:34:44.508Z,91.60
2022-12-11T03:37:12.895Z,92.00
2022-12-11T03:39:42.188Z,91.90
2022-12-11T03:42:11.827Z,92.00
2022-12-11T03:44:38.875Z,92.20
2022-12-11T03:47:08.113Z,92.00
2022-12-11T03:49:37.013Z,91.80
2022-12-11T03:52:04.712Z,92.20
2022-12-11T03:54:31.915Z,92.10
2022-12-11T03:57:00.671Z,92.40
2022-12-11T03:59:27.467Z,91.90
2022-12-11T04:01:54.400Z,91.40
2022-12-11T04:04:21.261Z,90.90
2022-12-11T04:06:48.149Z,90.50
2022-12-11T04:09:15.119Z,90.40
2022-12-11T04:11:43.025Z,90.40
2022-12-11T04:14:29.768Z,90.20
2022-12-11T04:16:57.133Z,90.30
2022-12-11T04:19:42.822Z,90.50
2022-12-11T04:22:34.287Z,90.80
2022-12-11T04:25:01.501Z,91.10
2022-12-11T04:27:46.883Z,91.40
2022-12-11T04:30:15.388Z,91.40
2022-12-11T04:32:42.228Z,91.70
2022-12-11T04:35:10.375Z,91.90
2022-12-11T04:37:37.760Z,91.80
2022-12-11T04:40:05.673Z,92.00
2022-12-11T04:42:32.483Z,91.90
2022-12-11T04:44:59.432Z,91.90
2022-12-11T04:47:26.306Z,91.90
2022-12-11T04:49:53.228Z,91.80
2022-12-11T04:52:20.298Z,92.20
2022-12-11T04:54:47.152Z,91.50
2022-12-11T04:57:13.911Z,91.00
2022-12-11T04:59:41.061Z,90.50
2022-12-11T05:02:07.958Z,90.30
2022-12-11T05:04:35.779Z,90.20
2022-12-11T05:07:02.755Z,90.10
2022-12-11T05:09:29.805Z,90.10
2022-12-11T05:11:56.653Z,90.30
2022-12-11T05:14:23.536Z,90.40
2022-12-11T05:16:50.455Z,90.70
2022-12-11T05:19:17.256Z,90.90
2022-12-11T05:21:44.221Z,91.10
2022-12-11T05:24:10.999Z,91.20
2022-12-11T05:26:37.770Z,91.40
2022-12-11T05:29:05.675Z,91.60
2022-12-11T05:31:32.773Z,91.70
2022-12-11T05:33:59.707Z,91.70
2022-12-11T05:36:27.799Z,91.60
2022-12-11T05:38:55.009Z,91.80
2022-12-11T05:41:22.673Z,91.70
2022-12-11T05:43:49.557Z,92.20
2022-12-11T05:46:17.775Z,91.70
2022-12-11T05:48:56.505Z,91.10
2022-12-11T05:51:33.293Z,90.70
2022-12-11T05:54:00.218Z,90.50
2022-12-11T05:56:28.210Z,90.20
2022-12-11T05:58:55.561Z,90.00
2022-12-11T06:01:23.878Z,90.00
2022-12-11T06:03:50.889Z,90.20
2022-12-11T06:06:17.666Z,90.30
2022-12-11T06:08:44.386Z,90.60
2022-12-11T06:11:12.714Z,90.70
2022-12-11T06:13:39.761Z,91.00
2022-12-11T06:16:07.707Z,91.20
2022-12-11T06:18:38.439Z,91.50
2022-12-11T06:21:13.031Z,91.50
2022-12-11T06:23:40.077Z,92.30
2022-12-11T06:26:07.178Z,92.00
2022-12-11T06:28:34.178Z,91.70
2022-12-11T06:31:01.165Z,91.70
2022-12-11T06:33:28.165Z,92.20
2022-12-11T06:35:55.136Z,91.60
2022-12-11T06:38:21.963Z,91.50
2022-12-11T06:40:58.021Z,90.80
2022-12-11T06:43:25.104Z,90.70
2022-12-11T06:45:52.309Z,90.50
2022-12-11T06:48:20.201Z,90.30
2022-12-11T06:50:47.021Z,90.20
2022-12-11T06:53:15.001Z,90.40
2022-12-11T06:55:42.153Z,90.10
2022-12-11T06:58:09.717Z,90.20
2022-12-11T07:00:37.241Z,90.30
2022-12-11T07:03:04.624Z,90.60
2022-12-11T07:05:32.035Z,91.00
2022-12-11T07:07:59.396Z,91.10
2022-12-11T07:10:26.525Z,91.20
2022-12-11T07:12:54.611Z,91.30
2022-12-11T07:15:21.451Z,91.50
2022-12-11T07:17:48.295Z,91.70
2022-12-11T07:20:15.198Z,91.60
2022-12-11T07:22:46.390Z,91.70
2022-12-11T07:25:14.200Z,91.80
2022-12-11T07:27:41.710Z,92.20
2022-12-11T07:30:09.284Z,91.80
2022-12-11T07:32:36.168Z,91.40
2022-12-11T07:35:03.027Z,91.00
2022-12-11T07:37:29.800Z,90.80
2022-12-11T07:39:56.618Z,90.60
2022-12-11T07:42:23.390Z,90.40
2022-12-11T07:44:50.164Z,90.20
2022-12-11T07:47:16.966Z,90.20
2022-12-11T07:49:43.756Z,90.30
2022-12-11T07:52:10.554Z,90.20
2022-12-11T07:54:37.327Z,90.00
2022-12-11T07:57:04.852Z,90.00
2022-12-11T07:59:32.294Z,90.30
2022-12-11T08:01:59.285Z,90.40
2022-12-11T08:04:26.182Z,90.60
2022-12-11T08:06:53.076Z,89.90
2022-12-11T08:09:22.793Z,88.70
2022-12-11T08:11:51.006Z,87.60
2022-12-11T08:14:18.221Z,86.60
2022-12-11T08:16:45.179Z,86.00
2022-12-11T08:19:12.797Z,85.50
2022-12-11T08:21:40.210Z,85.30
2022-12-11T08:24:07.200Z,85.50
2022-12-11T08:26:33.985Z,85.40
2022-12-11T08:29:01.139Z,85.50
2022-12-11T08:31:28.242Z,85.30
2022-12-11T08:33:56.566Z,85.30
2022-12-11T08:36:23.569Z,85.50
2022-12-11T08:38:51.225Z,85.60
2022-12-11T08:41:22.664Z,85.30
2022-12-11T08:43:49.997Z,85.70
2022-12-11T08:46:16.823Z,85.50
2022-12-11T08:48:43.868Z,85.30
2022-12-11T08:51:12.185Z,85.20
2022-12-11T08:53:39.800Z,85.00
2022-12-11T08:56:07.967Z,85.20
2022-12-11T08:58:34.663Z,85.30
2022-12-11T09:01:05.875Z,85.30
2022-12-11T09:03:32.754Z,85.40
2022-12-11T09:05:59.530Z,85.70
2022-12-11T09:08:26.471Z,85.70
2022-12-11T09:10:53.280Z,85.50
2022-12-11T09:13:20.057Z,85.80
2022-12-11T09:15:46.879Z,85.90
2022-12-11T09:18:13.660Z,85.90
2022-12-11T09:20:40.424Z,85.80
2022-12-11T09:23:07.211Z,85.80
2022-12-11T09:25:33.938Z,86.00
2022-12-11T09:28:01.653Z,85.80
2022-12-11T09:30:28.484Z,85.70
2022-12-11T09:32:55.328Z,85.30
2022-12-11T09:35:22.062Z,85.30
2022-12-11T09:37:48.846Z,85.60
2022-12-11T09:40:15.616Z,85.40
2022-12-11T09:42:57.840Z,85.20
2022-12-11T09:45:24.624Z,85.30
2022-12-11T09:47:52.756Z,85.30
2022-12-11T09:50:21.667Z,85.20
2022-12-11T09:52:51.181Z,85.30
2022-12-11T09:55:20.443Z,85.20
2022-12-11T09:57:53.075Z,85.40
2022-12-11T10:00:25.695Z,85.20
2022-12-11T10:02:55.455Z,85.20
2022-12-11T10:05:38.379Z,85.10
2022-12-11T10:08:24.065Z,85.20
2022-12-11T10:10:56.405Z,85.50
2022-12-11T10:13:32.853Z,86.00
2022-12-11T10:16:31.895Z,86.00
2022-12-11T10:18:58.724Z,85.90
2022-12-11T10:21:26.331Z,86.00
2022-12-11T10:24:00.839Z,86.20
2022-12-11T10:26:28.748Z,85.90
2022-12-11T10:28:59.249Z,86.20
2022-12-11T10:31:33.243Z,86.10
2022-12-11T10:34:01.508Z,86.10
2022-12-11T10:36:30.230Z,86.00
2022-12-11T10:38:57.686Z,85.20
2022-12-11T10:41:30.269Z,85.30
2022-12-11T10:43:57.074Z,85.30
2022-12-11T10:46:25.262Z,85.60
2022-12-11T10:48:53.660Z,85.80
2022-12-11T10:51:25.014Z,85.70
2022-12-11T10:53:52.906Z,85.90
2022-12-11T10:56:29.741Z,86.20
2022-12-11T10:58:57.676Z,86.40
2022-12-11T11:01:25.812Z,86.20
2022-12-11T11:04:07.070Z,86.40
2022-12-11T11:06:33.998Z,86.50
2022-12-11T11:09:01.435Z,86.60
2022-12-11T11:11:33.822Z,86.60
2022-12-11T11:14:09.766Z,86.50
2022-12-11T11:16:37.888Z,86.80
2022-12-11T11:19:05.251Z,87.10
2022-12-11T11:21:32.558Z,87.10
2022-12-11T11:23:59.487Z,86.70
2022-12-11T11:26:43.519Z,86.50
2022-12-11T11:29:23.107Z,86.60
2022-12-11T11:31:50.030Z,86.50
2022-12-11T11:34:19.868Z,86.50
2022-12-11T11:36:55.850Z,86.40
2022-12-11T11:39:26.006Z,86.50
2022-12-11T11:42:13.233Z,86.40
2022-12-11T11:44:47.551Z,86.40
2022-12-11T11:47:17.190Z,86.10
2022-12-11T11:49:53.316Z,86.30
2022-12-11T11:52:29.039Z,86.30
2022-12-11T11:54:58.600Z,86.40
2022-12-11T11:57:42.499Z,86.40
2022-12-11T12:00:15.407Z,86.50
2022-12-11T12:02:42.525Z,86.50
2022-12-11T12:05:12.890Z,86.30
2022-12-11T12:07:58.409Z,86.40
2022-12-11T12:10:40.474Z,86.40
2022-12-11T12:13:44.382Z,86.40
2022-12-11T12:16:01.112Z,86.40
2022-12-11T12:18:46.601Z,86.40
2022-12-11T12:21:27.657Z,86.50
2022-12-11T12:23:54.416Z,86.50
2022-12-11T12:26:28.093Z,86.60
2022-12-11T12:29:06.889Z,86.50
2022-12-11T12:32:09.596Z,86.80
2022-12-11T12:34:36.378Z,86.60
2022-12-11T12:37:22.180Z,86.60
2022-12-11T12:39:48.932Z,86.60
2022-12-11T12:42:15.729Z,86.50
2022-12-11T12:44:49.343Z,86.60
2022-12-11T12:47:17.344Z,86.30
2022-12-11T12:49:48.307Z,86.10
2022-12-11T12:52:17.971Z,86.30
2022-12-11T12:55:06.335Z,86.20
2022-12-11T12:57:34.362Z,86.30
2022-12-11T13:00:01.168Z,86.20
2022-12-11T13:02:28.416Z,86.50
2022-12-11T13:04:58.332Z,86.70
2022-12-11T13:07:30.319Z,86.50
2022-12-11T13:09:59.038Z,86.70
2022-12-11T13:12:34.168Z,86.40
2022-12-11T13:15:01.125Z,86.10
2022-12-11T13:17:38.436Z,86.40
2022-12-11T13:20:14.417Z,87.20
2022-12-11T13:22:48.216Z,86.10
2022-12-11T13:25:22.707Z,85.90
2022-12-11T13:27:50.220Z,85.80
2022-12-11T13:30:20.016Z,86.00
2022-12-11T13:32:55.528Z,85.90
2022-12-11T13:35:22.640Z,85.70
2022-12-11T13:37:51.116Z,85.70
2022-12-11T13:40:18.012Z,85.80
2022-12-11T13:42:50.172Z,85.70
2022-12-11T13:45:46.639Z,85.80
2022-12-11T13:48:17.824Z,85.40
2022-12-11T13:50:44.867Z,85.40
2022-12-11T13:53:15.907Z,85.70
2022-12-11T13:55:43.219Z,85.80
2022-12-11T13:58:22.756Z,85.90
2022-12-11T14:00:58.805Z,85.90
2022-12-11T14:03:25.705Z,85.90
2022-12-11T14:05:52.827Z,86.80
2022-12-11T14:08:34.086Z,87.20
2022-12-11T14:11:02.644Z,87.80
2022-12-11T14:13:37.485Z,88.40
2022-12-11T14:16:04.532Z,88.20
2022-12-11T14:18:32.694Z,86.90
2022-12-11T14:21:00.999Z,86.40
2022-12-11T14:23:29.911Z,86.30
2022-12-11T14:25:58.041Z,85.70
2022-12-11T14:28:27.953Z,85.60
2022-12-11T14:30:56.554Z,85.20
2022-12-11T14:33:25.366Z,85.40
2022-12-11T14:35:53.031Z,85.30
2022-12-11T14:38:40.046Z,85.50
2022-12-11T14:41:12.494Z,85.50
2022-12-11T14:43:43.488Z,85.70
2022-12-11T14:46:15.670Z,85.90
2022-12-11T14:48:57.501Z,85.90
2022-12-11T14:51:30.213Z,86.10
2022-12-11T14:53:57.654Z,86.70
2022-12-11T14:56:25.763Z,86.80
2022-12-11T14:59:01.059Z,86.90
2022-12-11T15:01:29.516Z,87.10
2022-12-11T15:04:07.051Z,87.30
2022-12-11T15:06:35.643Z,87.90
2022-12-11T15:09:17.916Z,88.80
2022-12-11T15:11:45.002Z,89.00
2022-12-11T15:14:12.532Z,89.60
2022-12-11T15:16:41.107Z,89.80
2022-12-11T15:19:17.108Z,88.50
2022-12-11T15:21:44.153Z,87.80
2022-12-11T15:24:21.128Z,87.70
2022-12-11T15:26:48.243Z,87.40
2022-12-11T15:29:26.657Z,87.10
2022-12-11T15:32:20.123Z,86.80
2022-12-11T15:34:57.153Z,86.60
2022-12-11T15:37:27.032Z,86.60
2022-12-11T15:39:54.682Z,86.20
2022-12-11T15:42:30.261Z,86.30
2022-12-11T15:44:57.330Z,85.90
2022-12-11T15:47:25.761Z,85.90
2022-12-11T15:49:58.224Z,85.70
2022-12-11T15:52:25.634Z,86.20
2022-12-11T15:54:52.416Z,86.80
2022-12-11T15:57:21.011Z,87.00
2022-12-11T15:59:51.175Z,87.60
2022-12-11T16:02:18.043Z,88.70
2022-12-11T16:04:44.887Z,89.00
2022-12-11T16:07:37.901Z,89.80
2022-12-11T16:10:05.580Z,90.00
2022-12-11T16:12:32.527Z,89.70
2022-12-11T16:14:59.267Z,88.40
2022-12-11T16:17:26.689Z,87.30
2022-12-11T16:19:54.174Z,86.80
2022-12-11T16:22:20.962Z,86.80
2022-12-11T16:24:47.884Z,86.70
2022-12-11T16:27:18.603Z,86.30
2022-12-11T16:29:48.465Z,86.40
2022-12-11T16:32:15.279Z,86.30
2022-12-11T16:34:42.228Z,86.30
2022-12-11T16:37:09.357Z,86.40
2022-12-11T16:39:37.174Z,86.40
2022-12-11T16:42:06.511Z,86.60
2022-12-11T16:44:33.748Z,86.70
2022-12-11T16:47:00.615Z,86.70
2022-12-11T16:49:27.444Z,87.00
2022-12-11T16:51:54.318Z,86.80
2022-12-11T16:54:21.115Z,86.50
2022-12-11T16:56:48.264Z,86.30
2022-12-11T16:59:15.107Z,87.30
2022-12-11T17:01:41.917Z,84.90
2022-12-11T17:04:08.817Z,84.30
2022-12-11T17:06:35.751Z,85.00
2022-12-11T17:09:02.610Z,83.80
2022-12-11T17:11:29.416Z,83.50
2022-12-11T17:13:59.686Z,83.40
2022-12-11T17:16:29.092Z,83.40
2022-12-11T17:18:56.781Z,84.10
2022-12-11T17:21:23.963Z,84.40
2022-12-11T17:23:51.199Z,84.50
2022-12-11T17:26:18.409Z,84.40
2022-12-11T17:28:45.627Z,84.40
2022-12-11T17:31:13.889Z,84.10
2022-12-11T17:33:40.779Z,84.60
2022-12-11T17:36:08.339Z,85.10
2022-12-11T17:38:35.866Z,85.10
2022-12-11T17:41:05.515Z,86.30
2022-12-11T17:43:32.496Z,87.40
2022-12-11T17:45:59.332Z,88.00
2022-12-11T17:48:26.255Z,88.40
2022-12-11T17:50:53.734Z,87.80
2022-12-11T17:53:21.171Z,87.10
2022-12-11T17:55:48.709Z,86.90
2022-12-11T17:58:17.183Z,86.50
2022-12-11T18:00:46.208Z,86.20
2022-12-11T18:03:13.525Z,86.00
2022-12-11T18:05:44.727Z,85.90
2022-12-11T18:08:18.919Z,86.20
2022-12-11T18:10:46.459Z,86.50
2022-12-11T18:13:14.649Z,86.90
2022-12-11T18:15:44.106Z,87.70
2022-12-11T18:18:11.031Z,88.20
2022-12-11T18:20:39.370Z,89.00
2022-12-11T18:23:06.328Z,89.50
2022-12-11T18:25:33.968Z,90.00
2022-12-11T18:28:00.885Z,90.00
2022-12-11T18:30:28.956Z,90.00
2022-12-11T18:32:55.917Z,90.00
2022-12-11T18:35:22.763Z,89.40
2022-12-11T18:37:49.607Z,88.50
2022-12-11T18:40:17.110Z,87.50
2022-12-11T18:42:43.894Z,87.40
2022-12-11T18:45:11.024Z,86.70
2022-12-11T18:47:38.077Z,86.40
2022-12-11T18:50:08.035Z,86.20
2022-12-11T18:52:35.156Z,86.40
2022-12-11T18:55:02.142Z,86.50
2022-12-11T18:57:28.898Z,86.50
2022-12-11T18:59:55.702Z,87.10
2022-12-11T19:02:22.610Z,88.20
2022-12-11T19:04:49.472Z,89.00
2022-12-11T19:07:16.183Z,89.20
2022-12-11T19:09:47.896Z,89.60
2022-12-11T19:12:14.944Z,89.60
2022-12-11T19:14:41.688Z,89.90
2022-12-11T19:17:08.516Z,90.00
2022-12-11T19:19:36.063Z,89.40
2022-12-11T19:22:03.412Z,88.40
2022-12-11T19:24:30.446Z,87.40
2022-12-11T19:26:57.506Z,86.50
2022-12-11T19:29:25.436Z,86.30
2022-12-11T19:31:55.306Z,86.20
2022-12-11T19:34:22.355Z,86.20
2022-12-11T19:36:49.148Z,85.90
2022-12-11T19:39:16.089Z,86.30
2022-12-11T19:41:43.063Z,86.60
2022-12-11T19:44:10.004Z,86.80
2022-12-11T19:46:36.904Z,87.80
2022-12-11T19:49:04.392Z,88.50
2022-12-11T19:51:33.901Z,88.70
2022-12-11T19:54:02.962Z,88.90
2022-12-11T19:56:29.782Z,89.20
2022-12-11T19:58:56.686Z,90.00
2022-12-11T20:01:28.921Z,89.50
2022-12-11T20:03:57.596Z,87.80
2022-12-11T20:06:24.588Z,87.10
2022-12-11T20:08:51.471Z,86.60
2022-12-11T20:11:19.153Z,86.30
2022-12-11T20:13:46.848Z,86.20
2022-12-11T20:16:15.817Z,86.20
2022-12-11T20:18:42.881Z,85.80
2022-12-11T20:21:11.860Z,86.60
2022-12-11T20:23:38.658Z,85.80
2022-12-11T20:26:06.356Z,85.30
2022-12-11T20:28:33.127Z,86.70
2022-12-11T20:31:16.447Z,85.80
2022-12-11T20:33:46.735Z,86.20
2022-12-11T20:36:14.657Z,86.40
2022-12-11T20:38:41.996Z,87.10
2022-12-11T20:41:11.118Z,88.00
2022-12-11T20:43:38.029Z,88.50
2022-12-11T20:46:08.828Z,88.90
2022-12-11T20:48:35.809Z,89.30
2022-12-11T20:51:03.835Z,89.20
2022-12-11T20:53:30.702Z,89.40
2022-12-11T20:55:57.550Z,89.10
2022-12-11T20:58:24.420Z,90.00
2022-12-11T21:00:51.217Z,90.10
2022-12-11T21:03:18.071Z,90.10
2022-12-11T21:05:45.774Z,89.90
2022-12-11T21:08:12.625Z,90.10
2022-12-11T21:10:43.273Z,90.10
2022-12-11T21:13:10.160Z,89.70
2022-12-11T21:15:37.658Z,90.10
2022-12-11T21:18:04.506Z,90.20
2022-12-11T21:20:31.329Z,90.10
2022-12-11T21:22:58.127Z,90.00
2022-12-11T21:25:25.122Z,90.10
2022-12-11T21:27:51.961Z,90.20
2022-12-11T21:30:19.258Z,90.50
2022-12-11T21:32:46.332Z,89.90
2022-12-11T21:35:13.843Z,89.20
2022-12-11T21:37:41.979Z,88.70
2022-12-11T21:40:09.415Z,88.00
2022-12-11T21:42:36.328Z,87.60
2022-12-11T21:47:50.772Z,87.80
2022-12-11T21:50:17.659Z,87.90
2022-12-11T21:52:44.727Z,88.60
2022-12-11T21:55:12.187Z,89.00
2022-12-11T21:57:39.165Z,89.50
2022-12-11T22:00:06.527Z,89.40
2022-12-11T22:02:39.018Z,90.00
2022-12-11T22:05:07.708Z,89.70
2022-12-11T22:07:34.683Z,90.00
2022-12-11T22:10:01.465Z,90.00
2022-12-11T22:12:28.590Z,90.00
2022-12-11T22:14:55.456Z,90.00
2022-12-11T22:17:22.328Z,90.30
2022-12-11T22:19:49.149Z,90.10
2022-12-11T22:22:15.942Z,90.20
2022-12-11T22:24:42.713Z,90.20
2022-12-11T22:27:09.485Z,90.30
2022-12-11T22:29:36.406Z,90.10
2022-12-11T22:32:04.005Z,90.20
2022-12-11T22:34:30.934Z,90.00
2022-12-11T22:37:00.027Z,90.10
2022-12-11T22:39:26.767Z,90.30
2022-12-11T22:41:53.589Z,90.10
2022-12-11T22:44:21.130Z,89.60
2022-12-11T22:46:50.263Z,89.00
2022-12-11T22:49:18.301Z,88.20
2022-12-11T22:51:45.512Z,88.10
2022-12-11T22:54:12.329Z,87.90
2022-12-11T22:56:39.101Z,87.70
2022-12-11T22:59:07.673Z,87.70
2022-12-11T23:01:34.812Z,87.80
2022-12-11T23:04:01.660Z,88.20
2022-12-11T23:06:28.595Z,88.60
2022-12-11T23:08:57.956Z,89.20
2022-12-11T23:11:29.316Z,89.80
2022-12-11T23:13:56.684Z,90.10
2022-12-11T23:16:24.516Z,90.10
2022-12-11T23:18:51.554Z,90.30
2022-12-11T23:21:18.398Z,90.60
2022-12-11T23:23:45.153Z,90.20
2022-12-11T23:26:12.969Z,90.40
2022-12-11T23:28:40.382Z,90.20
2022-12-11T23:31:07.661Z,90.40
2022-12-11T23:33:34.722Z,90.40
2022-12-11T23:36:02.035Z,90.30
2022-12-11T23:38:28.869Z,90.30
2022-12-11T23:40:56.058Z,90.40
2022-12-11T23:43:22.985Z,90.20
2022-12-11T23:45:49.777Z,90.50
2022-12-11T23:48:17.087Z,90.40
2022-12-11T23:50:44.194Z,89.60
2022-12-11T23:53:11.056Z,89.30
2022-12-11T23:55:39.233Z,88.70
2022-12-11T23:58:06.101Z,88.30
